Terminal Aerodrome Forecast
Issued by NWS Charleston, WV

Current Version | Previous Version | Text Only | Print | Product List | Glossary Off
Versions: 1 2 3 4 5 6 7 8 9 10 11 12 13 14 15 16 17 18 19 20 21 22 23 24 25 26 27 28

713
FTUS41 KRLX 250241 AAA
TAFPKB
TAF AMD
KPKB 250241Z 2503/2524 20006KT P6SM SKC
     FM250600 19008G19KT P6SM BKN100
     FM250800 20006KT 5SM -SHRA VCTS BKN050CB
      TEMPO 2508/2509 22014G40KT 2SM +TSRA OVC025CB
     FM250900 21006KT 5SM SHRA OVC025
     FM251200 26010G26KT P6SM BKN035
     FM252200 26011G21KT P6SM BKN035=

USA.gov is the U.S. government's official web portal to all federal, state and local government web resources and services.